createdAt,value
2023-04-15T00:00:55.545Z,94017.00
2023-04-15T00:01:55.600Z,94015.00
2023-04-15T00:02:55.771Z,94017.00
2023-04-15T00:03:55.593Z,94021.00
2023-04-15T00:04:55.554Z,94021.00
2023-04-15T00:05:55.518Z,94025.00
2023-04-15T00:06:55.497Z,94021.00
2023-04-15T00:07:55.503Z,94017.00
2023-04-15T00:08:55.515Z,94017.00
2023-04-15T00:09:55.482Z,94015.00
2023-04-15T00:10:55.466Z,94011.00
2023-04-15T00:11:55.459Z,94011.00
2023-04-15T00:12:55.489Z,94013.00
2023-04-15T00:13:55.529Z,94015.00
2023-04-15T00:14:55.574Z,94019.00
2023-04-15T00:15:55.584Z,94021.00
2023-04-15T00:16:55.687Z,94023.00
2023-04-15T00:17:55.743Z,94021.00
2023-04-15T00:18:55.722Z,94019.00
2023-04-15T00:19:55.747Z,94015.00
2023-04-15T00:20:55.733Z,94015.00
2023-04-15T00:21:55.789Z,94015.00
2023-04-15T00:22:55.808Z,94013.00
2023-04-15T00:23:55.853Z,94013.00
2023-04-15T00:24:55.884Z,94011.00
2023-04-15T00:25:55.926Z,94007.00
2023-04-15T00:26:55.937Z,94007.00
2023-04-15T00:27:55.993Z,94003.00
2023-04-15T00:28:56.001Z,94005.00
2023-04-15T00:29:56.065Z,94005.00
2023-04-15T00:30:56.153Z,94009.00
2023-04-15T00:31:56.116Z,94007.00
2023-04-15T00:32:56.228Z,94011.00
2023-04-15T00:33:56.197Z,94009.00
2023-04-15T00:34:56.224Z,94011.00
2023-04-15T00:35:56.276Z,94011.00
2023-04-15T00:36:56.316Z,94009.00
2023-04-15T00:37:56.342Z,94009.00
2023-04-15T00:38:56.361Z,94009.00
2023-04-15T00:39:56.396Z,94009.00
2023-04-15T00:40:56.430Z,94009.00
2023-04-15T00:41:56.496Z,94011.00
2023-04-15T00:42:56.524Z,94011.00
2023-04-15T00:43:56.517Z,94009.00
2023-04-15T00:44:56.648Z,94007.00
2023-04-15T00:45:56.645Z,94007.00
2023-04-15T00:46:56.634Z,94007.00
2023-04-15T00:47:56.698Z,94003.00
2023-04-15T00:48:56.721Z,94005.00
2023-04-15T00:49:56.758Z,94001.00
2023-04-15T00:50:56.786Z,94003.00
2023-04-15T00:51:56.794Z,94003.00
2023-04-15T00:52:56.833Z,94007.00
2023-04-15T00:53:56.845Z,94007.00
2023-04-15T00:54:56.909Z,94007.00
2023-04-15T00:55:56.924Z,94009.00
2023-04-15T00:56:56.985Z,94011.00
2023-04-15T00:57:56.969Z,94011.00
2023-04-15T00:58:57.027Z,94011.00
2023-04-15T00:59:57.093Z,94011.00
2023-04-15T01:00:57.113Z,94011.00
2023-04-15T01:01:57.222Z,94011.00
2023-04-15T01:02:57.345Z,94009.00
2023-04-15T01:03:57.366Z,94009.00
2023-04-15T01:04:57.243Z,94005.00
2023-04-15T01:05:57.243Z,94005.00
2023-04-15T01:06:57.298Z,94003.00
2023-04-15T01:07:57.365Z,94005.00
2023-04-15T01:08:57.354Z,94005.00
2023-04-15T01:09:57.402Z,94005.00
2023-04-15T01:10:57.410Z,94005.00
2023-04-15T01:11:57.481Z,94003.00
2023-04-15T01:12:57.507Z,94005.00
2023-04-15T01:13:57.509Z,94005.00
2023-04-15T01:14:57.565Z,94007.00
2023-04-15T01:15:57.677Z,94007.00
2023-04-15T01:16:57.631Z,94009.00
2023-04-15T01:17:57.741Z,94007.00
2023-04-15T01:18:57.814Z,94009.00
2023-04-15T01:19:57.736Z,94009.00
2023-04-15T01:20:57.784Z,94011.00
2023-04-15T01:21:57.820Z,94013.00
2023-04-15T01:22:57.819Z,94011.00
2023-04-15T01:23:57.864Z,94011.00
2023-04-15T01:24:57.912Z,94011.00
2023-04-15T01:25:57.936Z,94009.00
2023-04-15T01:26:57.996Z,94013.00
2023-04-15T01:27:57.994Z,94011.00
2023-04-15T01:28:58.156Z,94013.00
2023-04-15T01:29:58.091Z,94017.00
2023-04-15T01:30:58.089Z,94013.00
2023-04-15T01:31:58.311Z,94015.00
2023-04-15T01:32:58.239Z,94013.00
2023-04-15T01:33:58.211Z,94013.00
2023-04-15T01:34:58.250Z,94013.00
2023-04-15T01:35:58.291Z,94011.00
2023-04-15T01:36:58.314Z,94009.00
2023-04-15T01:37:58.362Z,94007.00
2023-04-15T01:38:58.520Z,94009.00
2023-04-15T01:39:58.417Z,94007.00
2023-04-15T01:40:58.442Z,94011.00
2023-04-15T01:41:58.475Z,94011.00
2023-04-15T01:42:58.512Z,94011.00
2023-04-15T01:43:58.552Z,94015.00
2023-04-15T01:44:58.640Z,94013.00
2023-04-15T01:45:58.642Z,94015.00
2023-04-15T01:46:58.758Z,94013.00
2023-04-15T01:47:58.790Z,94013.00
2023-04-15T01:48:58.891Z,94009.00
2023-04-15T01:49:58.766Z,94011.00
2023-04-15T01:50:58.801Z,94009.00
2023-04-15T01:51:58.828Z,94007.00
2023-04-15T01:52:58.864Z,94011.00
2023-04-15T01:53:58.936Z,94009.00
2023-04-15T01:54:58.940Z,94009.00
2023-04-15T01:55:58.952Z,94011.00
2023-04-15T01:56:59.065Z,94009.00
2023-04-15T01:57:59.057Z,94009.00
2023-04-15T01:58:59.253Z,94009.00
2023-04-15T01:59:59.145Z,94007.00
2023-04-15T02:00:59.151Z,94007.00
2023-04-15T02:01:59.220Z,94007.00
2023-04-15T02:02:59.274Z,94007.00
2023-04-15T02:03:59.296Z,94007.00
2023-04-15T02:04:59.298Z,94007.00
2023-04-15T02:05:59.302Z,94007.00
2023-04-15T02:06:59.341Z,94007.00
2023-04-15T02:07:59.349Z,94007.00
2023-04-15T02:08:59.592Z,94009.00
2023-04-15T02:09:59.469Z,94007.00
2023-04-15T02:10:59.505Z,94009.00
2023-04-15T02:11:59.551Z,94007.00
2023-04-15T02:12:59.528Z,94007.00
2023-04-15T02:13:59.556Z,94009.00
2023-04-15T02:14:59.624Z,94009.00
2023-04-15T02:15:59.641Z,94011.00
2023-04-15T02:16:59.729Z,94009.00
2023-04-15T02:17:59.842Z,94011.00
2023-04-15T02:19:00.015Z,94011.00
2023-04-15T02:19:59.772Z,94013.00
2023-04-15T02:20:59.798Z,94015.00
2023-04-15T02:21:59.854Z,94011.00
2023-04-15T02:22:59.874Z,94015.00
2023-04-15T02:23:59.924Z,94017.00
2023-04-15T02:24:59.953Z,94017.00
2023-04-15T02:25:59.978Z,94015.00
2023-04-15T02:27:00.013Z,94013.00
2023-04-15T02:28:00.050Z,94009.00
2023-04-15T02:29:00.363Z,94009.00
2023-04-15T02:30:00.135Z,94007.00
2023-04-15T02:31:00.154Z,94007.00
2023-04-15T02:32:00.281Z,94007.00
2023-04-15T02:33:00.244Z,94005.00
2023-04-15T02:34:00.242Z,94005.00
2023-04-15T02:35:00.314Z,94003.00
2023-04-15T02:36:00.318Z,94007.00
2023-04-15T02:37:00.338Z,94007.00
2023-04-15T02:38:00.385Z,94005.00
2023-04-15T02:39:00.797Z,94005.00
2023-04-15T02:40:00.449Z,94005.00
2023-04-15T02:41:00.495Z,94007.00
2023-04-15T02:42:00.509Z,94005.00
2023-04-15T02:43:00.550Z,94003.00
2023-04-15T02:44:00.577Z,94003.00
2023-04-15T02:45:00.633Z,94003.00
2023-04-15T02:46:00.678Z,94001.00
2023-04-15T02:47:00.693Z,94001.00
2023-04-15T02:48:00.727Z,94005.00
2023-04-15T02:49:00.892Z,94005.00
2023-04-15T02:50:00.803Z,94005.00
2023-04-15T02:51:00.809Z,94005.00
2023-04-15T02:52:00.849Z,94005.00
2023-04-15T02:53:00.874Z,94003.00
2023-04-15T02:54:00.889Z,94001.00
2023-04-15T02:55:00.962Z,94001.00
2023-04-15T02:56:01.000Z,94001.00
2023-04-15T02:57:01.067Z,94003.00
2023-04-15T02:58:01.023Z,94003.00
2023-04-15T02:59:01.391Z,94003.00
2023-04-15T03:00:01.157Z,94005.00
2023-04-15T03:01:01.171Z,94005.00
2023-04-15T03:02:01.236Z,94005.00
2023-04-15T03:03:01.321Z,94003.00
2023-04-15T03:04:01.314Z,94003.00
2023-04-15T03:05:01.294Z,94003.00
2023-04-15T03:06:01.344Z,94005.00
2023-04-15T03:07:01.374Z,94005.00
2023-04-15T03:08:01.499Z,94005.00
2023-04-15T03:09:01.722Z,94005.00
2023-04-15T03:10:01.451Z,94005.00
2023-04-15T03:11:01.518Z,94007.00
2023-04-15T03:12:01.543Z,94009.00
2023-04-15T03:13:01.560Z,94011.00
2023-04-15T03:14:01.598Z,94011.00
2023-04-15T03:15:01.662Z,94011.00
2023-04-15T03:16:01.665Z,94013.00
2023-04-15T03:17:01.689Z,94011.00
2023-04-15T03:18:01.818Z,94011.00
2023-04-15T03:19:01.944Z,94007.00
2023-04-15T03:20:01.816Z,94005.00
2023-04-15T03:21:01.856Z,94003.00
2023-04-15T03:22:01.879Z,94003.00
2023-04-15T03:23:01.954Z,94001.00
2023-04-15T03:24:01.948Z,94001.00
2023-04-15T03:25:01.946Z,94001.00
2023-04-15T03:26:02.051Z,94005.00
2023-04-15T03:27:02.061Z,94001.00
2023-04-15T03:28:02.063Z,94005.00
2023-04-15T03:29:02.278Z,94005.00
2023-04-15T03:30:02.145Z,94001.00
2023-04-15T03:31:02.199Z,94005.00
2023-04-15T03:32:02.181Z,94005.00
2023-04-15T03:33:02.280Z,94005.00
2023-04-15T03:34:02.258Z,94005.00
2023-04-15T03:35:02.319Z,94001.00
2023-04-15T03:36:02.329Z,94003.00
2023-04-15T03:37:02.379Z,94003.00
2023-04-15T03:38:02.410Z,94003.00
2023-04-15T03:39:02.647Z,94003.00
2023-04-15T03:40:02.469Z,94005.00
2023-04-15T03:41:02.477Z,94005.00
2023-04-15T03:42:02.508Z,94005.00
2023-04-15T03:43:02.551Z,94007.00
2023-04-15T03:44:02.634Z,94007.00
2023-04-15T03:45:02.652Z,94009.00
2023-04-15T03:46:02.681Z,94011.00
2023-04-15T03:47:02.687Z,94009.00
2023-04-15T03:48:16.089Z,94005.00
2023-04-15T03:49:03.934Z,94007.00
2023-04-15T03:50:02.715Z,94007.00
2023-04-15T03:51:02.683Z,94007.00
2023-04-15T03:52:02.693Z,94007.00
2023-04-15T03:53:02.693Z,94009.00
2023-04-15T03:54:02.670Z,94007.00
2023-04-15T03:55:02.699Z,94007.00
2023-04-15T03:56:02.659Z,94009.00
2023-04-15T03:57:02.649Z,94011.00
2023-04-15T03:58:02.643Z,94011.00
2023-04-15T03:59:03.093Z,94009.00
2023-04-15T04:00:02.628Z,94009.00
2023-04-15T04:01:02.654Z,94009.00
2023-04-15T04:02:02.738Z,94011.00
2023-04-15T04:03:02.791Z,94009.00
2023-04-15T04:04:02.763Z,94011.00
2023-04-15T04:05:02.750Z,94013.00
2023-04-15T04:06:02.748Z,94015.00
2023-04-15T04:07:02.786Z,94017.00
2023-04-15T04:08:02.819Z,94017.00
2023-04-15T04:09:03.100Z,94015.00
2023-04-15T04:10:02.875Z,94013.00
2023-04-15T04:11:02.909Z,94015.00
2023-04-15T04:12:02.964Z,94013.00
2023-04-15T04:13:02.974Z,94017.00
2023-04-15T04:14:03.037Z,94017.00
2023-04-15T04:15:03.091Z,94015.00
2023-04-15T04:16:03.157Z,94015.00
2023-04-15T04:17:03.150Z,94017.00
2023-04-15T04:18:03.200Z,94013.00
2023-04-15T04:19:03.381Z,94011.00
2023-04-15T04:20:03.220Z,94013.00
2023-04-15T04:21:03.252Z,94019.00
2023-04-15T04:22:03.281Z,94015.00
2023-04-15T04:23:03.310Z,94015.00
2023-04-15T04:24:03.302Z,94019.00
2023-04-15T04:25:03.370Z,94021.00
2023-04-15T04:26:03.385Z,94019.00
2023-04-15T04:27:03.420Z,94019.00
2023-04-15T04:28:03.485Z,94017.00
2023-04-15T04:29:03.827Z,94017.00
2023-04-15T04:30:03.531Z,94017.00
2023-04-15T04:31:03.574Z,94017.00
2023-04-15T04:32:03.635Z,94019.00
2023-04-15T04:33:03.670Z,94021.00
2023-04-15T04:34:03.631Z,94023.00
2023-04-15T04:35:03.729Z,94027.00
2023-04-15T04:36:03.729Z,94029.00
2023-04-15T04:37:03.734Z,94029.00
2023-04-15T04:38:03.806Z,94031.00
2023-04-15T04:39:03.858Z,94031.00
2023-04-15T04:40:03.858Z,94031.00
2023-04-15T04:41:03.866Z,94029.00
2023-04-15T04:42:03.896Z,94029.00
2023-04-15T04:43:03.942Z,94033.00
2023-04-15T04:44:03.980Z,94035.00
2023-04-15T04:45:04.016Z,94037.00
2023-04-15T04:46:04.095Z,94039.00
2023-04-15T04:47:04.095Z,94039.00
2023-04-15T04:48:04.133Z,94041.00
2023-04-15T04:49:04.388Z,94039.00
2023-04-15T04:50:04.196Z,94039.00
2023-04-15T04:51:04.187Z,94039.00
2023-04-15T04:52:04.240Z,94043.00
2023-04-15T04:53:04.271Z,94039.00
2023-04-15T04:54:04.324Z,94043.00
2023-04-15T04:55:04.358Z,94041.00
2023-04-15T04:56:04.385Z,94041.00
2023-04-15T04:57:04.444Z,94041.00
2023-04-15T04:58:04.455Z,94039.00
2023-04-15T04:59:04.511Z,94039.00
2023-04-15T05:00:04.566Z,94043.00
2023-04-15T05:01:04.596Z,94041.00
2023-04-15T05:02:04.660Z,94043.00
2023-04-15T05:03:04.705Z,94043.00
2023-04-15T05:04:04.885Z,94041.00
2023-04-15T05:05:04.732Z,94045.00
2023-04-15T05:06:04.715Z,94048.00
2023-04-15T05:07:04.742Z,94047.00
2023-04-15T05:08:04.794Z,94047.00
2023-04-15T05:09:04.847Z,94043.00
2023-04-15T05:10:04.898Z,94045.00
2023-04-15T05:11:04.928Z,94043.00
2023-04-15T05:12:04.976Z,94043.00
2023-04-15T05:13:04.964Z,94043.00
2023-04-15T05:14:05.018Z,94041.00
2023-04-15T05:15:05.065Z,94041.00
2023-04-15T05:16:05.088Z,94041.00
2023-04-15T05:17:05.117Z,94039.00
2023-04-15T05:18:05.201Z,94045.00
2023-04-15T05:19:05.214Z,94043.00
2023-04-15T05:20:05.227Z,94043.00
2023-04-15T05:21:05.283Z,94043.00
2023-04-15T05:22:05.297Z,94043.00
2023-04-15T05:23:05.336Z,94041.00
2023-04-15T05:24:05.364Z,94041.00
2023-04-15T05:25:05.392Z,94043.00
2023-04-15T05:26:05.428Z,94043.00
2023-04-15T05:27:05.460Z,94043.00
2023-04-15T05:28:05.503Z,94045.00
2023-04-15T05:29:05.520Z,94047.00
2023-04-15T05:30:05.583Z,94047.00
2023-04-15T05:31:05.648Z,94048.00
2023-04-15T05:32:05.642Z,94048.00
2023-04-15T05:33:05.651Z,94048.00
2023-04-15T05:34:05.733Z,94050.00
2023-04-15T05:35:05.770Z,94052.00
2023-04-15T05:36:05.772Z,94047.00
2023-04-15T05:37:05.812Z,94050.00
2023-04-15T05:38:05.877Z,94052.00
2023-04-15T05:39:05.885Z,94054.00
2023-04-15T05:40:05.935Z,94054.00
2023-04-15T05:41:05.967Z,94052.00
2023-04-15T05:42:06.119Z,94052.00
2023-04-15T05:43:06.025Z,94054.00
2023-04-15T05:44:06.063Z,94054.00
2023-04-15T05:45:06.100Z,94056.00
2023-04-15T05:46:06.296Z,94058.00
2023-04-15T05:47:06.198Z,94058.00
2023-04-15T05:48:06.216Z,94058.00
2023-04-15T05:49:06.255Z,94058.00
2023-04-15T05:50:06.302Z,94058.00
2023-04-15T05:51:06.358Z,94060.00
2023-04-15T05:52:06.395Z,94058.00
2023-04-15T05:53:06.386Z,94060.00
2023-04-15T05:54:06.403Z,94062.00
2023-04-15T05:55:06.500Z,94064.00
2023-04-15T05:56:06.495Z,94066.00
2023-04-15T05:57:06.556Z,94066.00
2023-04-15T05:58:06.549Z,94066.00
2023-04-15T05:59:06.574Z,94064.00
2023-04-15T06:00:06.640Z,94064.00
2023-04-15T06:01:06.662Z,94064.00
2023-04-15T06:02:06.720Z,94066.00
2023-04-15T06:03:06.845Z,94068.00
2023-04-15T06:04:06.838Z,94070.00
2023-04-15T06:05:06.867Z,94070.00
2023-04-15T06:06:06.826Z,94070.00
2023-04-15T06:07:06.869Z,94070.00
2023-04-15T06:08:06.882Z,94074.00
2023-04-15T06:09:06.942Z,94074.00
2023-04-15T06:10:06.980Z,94074.00
2023-04-15T06:11:06.996Z,94072.00
2023-04-15T06:12:07.046Z,94072.00
2023-04-15T06:13:07.073Z,94070.00
2023-04-15T06:14:07.080Z,94068.00
2023-04-15T06:15:07.114Z,94068.00
2023-04-15T06:16:07.189Z,94066.00
2023-04-15T06:17:07.216Z,94064.00
2023-04-15T06:18:07.226Z,94064.00
2023-04-15T06:19:07.244Z,94066.00
2023-04-15T06:20:07.299Z,94068.00
2023-04-15T06:21:07.309Z,94068.00
2023-04-15T06:22:07.339Z,94066.00
2023-04-15T06:23:07.396Z,94064.00
2023-04-15T06:24:07.402Z,94062.00
2023-04-15T06:25:07.456Z,94066.00
2023-04-15T06:26:07.487Z,94064.00
2023-04-15T06:27:07.506Z,94064.00
2023-04-15T06:28:07.522Z,94066.00
2023-04-15T06:29:07.576Z,94064.00
2023-04-15T06:30:07.633Z,94066.00
2023-04-15T06:31:07.703Z,94068.00
2023-04-15T06:32:07.660Z,94064.00
2023-04-15T06:33:07.719Z,94066.00
2023-04-15T06:34:07.774Z,94068.00
2023-04-15T06:35:07.800Z,94068.00
2023-04-15T06:36:07.827Z,94068.00
2023-04-15T06:37:07.827Z,94070.00
2023-04-15T06:38:07.859Z,94068.00
2023-04-15T06:39:07.925Z,94068.00
2023-04-15T06:40:07.957Z,94070.00
2023-04-15T06:41:07.981Z,94070.00
2023-04-15T06:42:08.060Z,94068.00
2023-04-15T06:43:08.049Z,94068.00
2023-04-15T06:44:08.112Z,94070.00
2023-04-15T06:45:08.139Z,94070.00
2023-04-15T06:46:08.229Z,94068.00
2023-04-15T06:47:08.220Z,94068.00
2023-04-15T06:48:08.229Z,94070.00
2023-04-15T06:49:08.290Z,94070.00
2023-04-15T06:50:08.313Z,94068.00
2023-04-15T06:51:08.354Z,94068.00
2023-04-15T06:52:08.390Z,94068.00
2023-04-15T06:53:08.437Z,94070.00
2023-04-15T06:54:08.461Z,94068.00
2023-04-15T06:55:08.506Z,94070.00
2023-04-15T06:56:08.547Z,94070.00
2023-04-15T06:57:08.598Z,94070.00
2023-04-15T06:58:08.599Z,94068.00
2023-04-15T06:59:08.627Z,94070.00
2023-04-15T07:00:08.723Z,94068.00
2023-04-15T07:01:08.743Z,94066.00
2023-04-15T07:02:08.802Z,94066.00
2023-04-15T07:03:08.809Z,94066.00
2023-04-15T07:04:08.890Z,94066.00
2023-04-15T07:05:08.885Z,94064.00
2023-04-15T07:06:08.896Z,94066.00
2023-04-15T07:07:08.921Z,94064.00
2023-04-15T07:08:08.946Z,94064.00
2023-04-15T07:09:08.975Z,94064.00
2023-04-15T07:10:09.019Z,94064.00
2023-04-15T07:11:09.078Z,94064.00
2023-04-15T07:12:09.082Z,94064.00
2023-04-15T07:13:09.140Z,94064.00
2023-04-15T07:14:09.167Z,94064.00
2023-04-15T07:15:09.205Z,94068.00
2023-04-15T07:16:09.204Z,94066.00
2023-04-15T07:17:09.327Z,94062.00
2023-04-15T07:18:09.285Z,94062.00
2023-04-15T07:19:09.313Z,94062.00
2023-04-15T07:20:09.320Z,94066.00
2023-04-15T07:21:09.374Z,94066.00
2023-04-15T07:22:09.379Z,94066.00
2023-04-15T07:23:09.429Z,94066.00
2023-04-15T07:24:09.425Z,94062.00
2023-04-15T07:25:09.469Z,94062.00
2023-04-15T07:26:09.463Z,94064.00
2023-04-15T07:27:09.507Z,94062.00
2023-04-15T07:28:09.506Z,94062.00
2023-04-15T07:29:09.518Z,94062.00
2023-04-15T07:30:09.554Z,94058.00
2023-04-15T07:31:09.636Z,94060.00
2023-04-15T07:32:09.629Z,94058.00
2023-04-15T07:33:09.634Z,94056.00
2023-04-15T07:34:09.697Z,94056.00
2023-04-15T07:35:09.727Z,94054.00
2023-04-15T07:36:09.738Z,94060.00
2023-04-15T07:37:09.750Z,94054.00
2023-04-15T07:38:09.778Z,94060.00
2023-04-15T07:39:09.761Z,94058.00
2023-04-15T07:40:09.800Z,94058.00
2023-04-15T07:41:09.850Z,94058.00
2023-04-15T07:42:09.870Z,94056.00
2023-04-15T07:43:09.860Z,94056.00
2023-04-15T07:44:09.890Z,94052.00
2023-04-15T07:45:09.907Z,94050.00
2023-04-15T07:46:09.945Z,94050.00
2023-04-15T07:47:09.963Z,94050.00
2023-04-15T07:48:09.996Z,94050.00
2023-04-15T07:49:09.969Z,94048.00
2023-04-15T07:50:09.987Z,94050.00
2023-04-15T07:51:10.021Z,94048.00
2023-04-15T07:52:10.012Z,94048.00
2023-04-15T07:53:10.047Z,94048.00
2023-04-15T07:54:10.080Z,94048.00
2023-04-15T07:55:10.081Z,94047.00
2023-04-15T07:56:10.099Z,94041.00
2023-04-15T07:57:10.113Z,94043.00
2023-04-15T07:58:10.143Z,94043.00
2023-04-15T07:59:10.163Z,94039.00
2023-04-15T08:00:10.158Z,94039.00
2023-04-15T08:01:10.184Z,94037.00
2023-04-15T08:02:10.244Z,94035.00
2023-04-15T08:03:10.300Z,94035.00
2023-04-15T08:04:10.302Z,94039.00
2023-04-15T08:05:10.298Z,94035.00
2023-04-15T08:06:10.238Z,94037.00
2023-04-15T08:07:10.268Z,94037.00
2023-04-15T08:08:10.285Z,94037.00
2023-04-15T08:09:10.277Z,94035.00
2023-04-15T08:10:10.351Z,94033.00
2023-04-15T08:11:10.295Z,94035.00
2023-04-15T08:12:10.286Z,94035.00
2023-04-15T08:13:10.335Z,94035.00
2023-04-15T08:14:10.352Z,94035.00
2023-04-15T08:15:10.359Z,94033.00
2023-04-15T08:16:10.394Z,94035.00
2023-04-15T08:17:10.376Z,94033.00
2023-04-15T08:18:10.399Z,94031.00
2023-04-15T08:19:10.382Z,94031.00
2023-04-15T08:20:10.411Z,94029.00
2023-04-15T08:21:10.402Z,94027.00
2023-04-15T08:22:18.087Z,94031.00
2023-04-15T08:23:11.445Z,94029.00
2023-04-15T08:24:10.394Z,94029.00
2023-04-15T08:25:10.410Z,94029.00
2023-04-15T08:26:10.359Z,94031.00
2023-04-15T08:27:10.375Z,94031.00
2023-04-15T08:28:10.360Z,94029.00
2023-04-15T08:29:10.400Z,94027.00
2023-04-15T08:30:10.363Z,94029.00
2023-04-15T08:31:10.337Z,94029.00
2023-04-15T08:32:10.325Z,94031.00
2023-04-15T08:33:10.347Z,94031.00
2023-04-15T08:34:10.326Z,94029.00
2023-04-15T08:35:10.349Z,94029.00
2023-04-15T08:36:10.286Z,94029.00
2023-04-15T08:37:11.554Z,94031.00
2023-04-15T08:38:10.305Z,94029.00
2023-04-15T08:39:10.277Z,94025.00
2023-04-15T08:40:10.295Z,94027.00
2023-04-15T08:41:10.300Z,94023.00
2023-04-15T08:42:10.258Z,94025.00
2023-04-15T08:43:10.270Z,94025.00
2023-04-15T08:44:10.253Z,94023.00
2023-04-15T08:45:10.273Z,94021.00
2023-04-15T08:46:10.233Z,94021.00
2023-04-15T08:47:10.542Z,94025.00
2023-04-15T08:48:10.248Z,94023.00
2023-04-15T08:49:10.201Z,94021.00
2023-04-15T08:50:10.259Z,94021.00
2023-04-15T08:51:10.218Z,94019.00
2023-04-15T08:52:10.231Z,94017.00
2023-04-15T08:53:10.231Z,94019.00
2023-04-15T08:54:10.213Z,94019.00
2023-04-15T08:55:10.219Z,94023.00
2023-04-15T08:56:10.241Z,94023.00
2023-04-15T08:57:10.212Z,94017.00
2023-04-15T08:58:10.220Z,94021.00
2023-04-15T08:59:10.188Z,94025.00
2023-04-15T09:00:10.217Z,94023.00
2023-04-15T09:01:10.236Z,94021.00
2023-04-15T09:02:10.222Z,94025.00
2023-04-15T09:03:10.282Z,94019.00
2023-04-15T09:04:10.274Z,94017.00
2023-04-15T09:05:10.166Z,94017.00
2023-04-15T09:06:10.198Z,94019.00
2023-04-15T09:07:10.177Z,94017.00
2023-04-15T09:08:10.243Z,94017.00
2023-04-15T09:09:10.187Z,94017.00
2023-04-15T09:10:10.175Z,94015.00
2023-04-15T09:11:10.159Z,94013.00
2023-04-15T09:12:10.187Z,94019.00
2023-04-15T09:13:10.154Z,94017.00
2023-04-15T09:14:10.140Z,94015.00
2023-04-15T09:15:10.176Z,94017.00
2023-04-15T09:16:10.191Z,94015.00
2023-04-15T09:17:10.122Z,94013.00
2023-04-15T09:18:10.135Z,94011.00
2023-04-15T09:19:10.141Z,94011.00
2023-04-15T09:20:10.162Z,94011.00
2023-04-15T09:21:10.116Z,94009.00
2023-04-15T09:22:10.159Z,94007.00
2023-04-15T09:23:10.141Z,94009.00
2023-04-15T09:24:10.181Z,94009.00
2023-04-15T09:25:10.198Z,94007.00
2023-04-15T09:26:10.130Z,94007.00
2023-04-15T09:27:10.140Z,94005.00
2023-04-15T09:28:10.167Z,94005.00
2023-04-15T09:29:10.176Z,94001.00
2023-04-15T09:30:10.192Z,94001.00
2023-04-15T09:31:10.239Z,94001.00
2023-04-15T09:32:10.225Z,94001.00
2023-04-15T09:33:10.236Z,94001.00
2023-04-15T09:34:10.283Z,94003.00
2023-04-15T09:35:10.328Z,94003.00
2023-04-15T09:36:10.373Z,94001.00
2023-04-15T09:37:10.558Z,94001.00
2023-04-15T09:38:10.428Z,94001.00
2023-04-15T09:39:10.450Z,94000.00
2023-04-15T09:40:10.455Z,94000.00
2023-04-15T09:41:10.496Z,94000.00
2023-04-15T09:42:10.537Z,94000.00
2023-04-15T09:43:10.588Z,94000.00
2023-04-15T09:44:10.613Z,94001.00
2023-04-15T09:45:10.656Z,94000.00
2023-04-15T09:46:10.701Z,93998.00
2023-04-15T09:47:10.698Z,93998.00
2023-04-15T09:48:10.799Z,93998.00
2023-04-15T09:49:10.808Z,93996.00
2023-04-15T09:50:10.888Z,93994.00
2023-04-15T09:51:10.908Z,93994.00
2023-04-15T09:52:10.942Z,93992.00
2023-04-15T09:53:11.040Z,93994.00
2023-04-15T09:54:11.069Z,93998.00
2023-04-15T09:55:11.153Z,93996.00
2023-04-15T09:56:11.156Z,94000.00
2023-04-15T09:57:11.181Z,93994.00
2023-04-15T09:58:11.219Z,93992.00
2023-04-15T09:59:11.296Z,93992.00
2023-04-15T10:00:11.399Z,93992.00
2023-04-15T10:01:11.428Z,93990.00
2023-04-15T10:02:11.536Z,93990.00
2023-04-15T10:03:11.721Z,93988.00
2023-04-15T10:04:11.639Z,93990.00
2023-04-15T10:05:11.648Z,93988.00
2023-04-15T10:06:11.685Z,93988.00
2023-04-15T10:07:11.755Z,93992.00
2023-04-15T10:08:11.794Z,93990.00
2023-04-15T10:09:11.860Z,93990.00
2023-04-15T10:10:11.947Z,93990.00
2023-04-15T10:11:11.999Z,93986.00
2023-04-15T10:12:12.066Z,93986.00
2023-04-15T10:13:12.116Z,93984.00
2023-04-15T10:14:12.193Z,93984.00
2023-04-15T10:15:12.268Z,93982.00
2023-04-15T10:16:12.353Z,93988.00
2023-04-15T10:17:12.352Z,93984.00
2023-04-15T10:18:12.437Z,93984.00
2023-04-15T10:19:12.482Z,93984.00
2023-04-15T10:20:12.566Z,93986.00
2023-04-15T10:21:12.640Z,93986.00
2023-04-15T10:22:12.699Z,93990.00
2023-04-15T10:23:13.523Z,93988.00
2023-04-15T10:24:12.799Z,93988.00
2023-04-15T10:25:12.876Z,93992.00
2023-04-15T10:26:12.899Z,93992.00
2023-04-15T10:27:13.004Z,93990.00
2023-04-15T10:28:13.041Z,93990.00
2023-04-15T10:29:13.141Z,93990.00
2023-04-15T10:30:13.212Z,93992.00
2023-04-15T10:31:13.278Z,93992.00
2023-04-15T10:32:13.276Z,93992.00
2023-04-15T10:33:13.367Z,93994.00
2023-04-15T10:34:13.399Z,93994.00
2023-04-15T10:35:13.494Z,93990.00
2023-04-15T10:36:13.549Z,93992.00
2023-04-15T10:37:13.631Z,93992.00
2023-04-15T10:38:13.680Z,93994.00
2023-04-15T10:39:13.717Z,93992.00
2023-04-15T10:40:13.909Z,93992.00
2023-04-15T10:41:13.836Z,93992.00
2023-04-15T10:42:13.977Z,93996.00
2023-04-15T10:43:13.954Z,93992.00
2023-04-15T10:44:14.005Z,93992.00
2023-04-15T10:45:14.082Z,93994.00
2023-04-15T10:46:14.147Z,93992.00
2023-04-15T10:47:14.181Z,93996.00
2023-04-15T10:48:14.248Z,93996.00
2023-04-15T10:49:14.328Z,93994.00
2023-04-15T10:50:14.362Z,93994.00
2023-04-15T10:51:14.396Z,93998.00
2023-04-15T10:52:14.466Z,93994.00
2023-04-15T10:53:14.515Z,93994.00
2023-04-15T10:54:15.562Z,93994.00
2023-04-15T10:55:14.690Z,93988.00
2023-04-15T10:56:14.686Z,93988.00
2023-04-15T10:57:14.747Z,93992.00
2023-04-15T10:58:14.810Z,93988.00
2023-04-15T10:59:14.876Z,93992.00
2023-04-15T11:00:14.938Z,93990.00
2023-04-15T11:01:14.934Z,93994.00
2023-04-15T11:02:15.078Z,93994.00
2023-04-15T11:03:15.182Z,93992.00
2023-04-15T11:04:15.163Z,93992.00
2023-04-15T11:05:15.186Z,93994.00
2023-04-15T11:06:15.226Z,93992.00
2023-04-15T11:07:15.295Z,93992.00
2023-04-15T11:08:15.333Z,93990.00
2023-04-15T11:09:15.369Z,93986.00
2023-04-15T11:10:15.446Z,93986.00
2023-04-15T11:11:15.460Z,93988.00
2023-04-15T11:12:15.525Z,93984.00
2023-04-15T11:13:15.580Z,93984.00
2023-04-15T11:14:15.607Z,93986.00
2023-04-15T11:15:15.706Z,93982.00
2023-04-15T11:16:15.789Z,93982.00
2023-04-15T11:17:15.813Z,93978.00
2023-04-15T11:18:15.852Z,93980.00
2023-04-15T11:19:15.936Z,93982.00
2023-04-15T11:20:16.003Z,93978.00
2023-04-15T11:21:16.007Z,93980.00
2023-04-15T11:22:16.058Z,93984.00
2023-04-15T11:23:16.179Z,93984.00
2023-04-15T11:24:16.195Z,93984.00
2023-04-15T11:25:16.250Z,93988.00
2023-04-15T11:26:16.245Z,93988.00
2023-04-15T11:27:16.312Z,93986.00
2023-04-15T11:28:16.394Z,93984.00
2023-04-15T11:29:16.401Z,93984.00
2023-04-15T11:30:16.469Z,93988.00
2023-04-15T11:31:16.582Z,93986.00
2023-04-15T11:32:16.579Z,93986.00
2023-04-15T11:33:16.586Z,93986.00
2023-04-15T11:34:16.644Z,93986.00
2023-04-15T11:35:16.710Z,93986.00
2023-04-15T11:36:16.778Z,93994.00
2023-04-15T11:37:16.812Z,93992.00
2023-04-15T11:38:16.839Z,93992.00
2023-04-15T11:39:16.887Z,93992.00
2023-04-15T11:40:17.383Z,93992.00
2023-04-15T11:41:16.967Z,93988.00
2023-04-15T11:42:17.056Z,93990.00
2023-04-15T11:43:17.105Z,93988.00
2023-04-15T11:44:17.106Z,93988.00
2023-04-15T11:45:18.068Z,93986.00